Time;durP1;ratioP1;P1;durP2;ratioP2;P2;SDS_P1;SDS_P2;PMS_P1;PMS_P2;Temp;Humidity;BMP_temperature;BMP_pressure;BME280_temperature;BME280_humidity;BME280_pressure;Samples;Min_cycle;Max_cycle;Signal;HPM_P1;HPM_P2
2020/12/25 00:01:26;;;;;;;37.95;26.45;;;11.40;99.90;;;;;;5051451;28;20496;-76
2020/12/25 00:03:53;;;;;;;44.67;27.13;;;11.40;99.90;;;;;;5051471;28;20061;-75
2020/12/25 00:06:19;;;;;;;41.50;28.60;;;11.40;99.90;;;;;;5051270;28;20530;-75
2020/12/25 00:08:45;;;;;;;40.08;25.55;;;11.30;99.90;;;;;;5051144;28;20045;-76
2020/12/25 00:11:11;;;;;;;35.75;24.98;;;11.40;99.90;;;;;;5051311;28;20021;-75
2020/12/25 00:13:37;;;;;;;40.28;27.55;;;11.30;99.90;;;;;;5051259;28;20032;-76
2020/12/25 00:16:03;;;;;;;41.17;27.17;;;11.30;99.90;;;;;;5051162;28;20084;-76
2020/12/25 00:18:29;;;;;;;39.28;26.73;;;11.30;99.90;;;;;;5049851;28;20024;-75
2020/12/25 00:20:55;;;;;;;38.90;27.20;;;11.30;99.90;;;;;;5051136;28;20025;-75
2020/12/25 00:23:21;;;;;;;39.22;27.23;;;11.30;99.90;;;;;;5049502;28;20507;-75
2020/12/25 00:25:46;;;;;;;37.47;24.92;;;11.30;99.90;;;;;;5051075;28;20430;-75
2020/12/25 00:28:13;;;;;;;43.95;24.80;;;11.20;99.90;;;;;;5050947;28;20513;-75
2020/12/25 00:30:45;;;;;;;37.78;23.35;;;11.20;99.90;;;;;;5051012;28;20025;-75
2020/12/25 00:33:11;;;;;;;30.10;21.40;;;11.20;99.90;;;;;;5050880;28;20085;-76
2020/12/25 00:35:37;;;;;;;29.45;21.38;;;11.10;99.90;;;;;;5050714;28;20025;-75
2020/12/25 00:38:03;;;;;;;33.75;21.48;;;11.00;99.90;;;;;;5050933;28;20032;-75
2020/12/25 00:40:29;;;;;;;29.55;20.65;;;11.00;99.90;;;;;;5050893;28;20100;-75
2020/12/25 00:42:55;;;;;;;27.30;18.85;;;11.00;99.90;;;;;;5066284;28;20124;-75
2020/12/25 00:45:21;;;;;;;29.38;21.55;;;10.90;99.90;;;;;;5051106;28;20099;-76
2020/12/25 00:47:47;;;;;;;28.55;20.23;;;10.90;99.90;;;;;;5051087;28;20048;-76
2020/12/25 00:50:12;;;;;;;27.13;18.80;;;10.80;99.90;;;;;;5054588;28;20020;-75
2020/12/25 00:52:38;;;;;;;29.42;18.90;;;10.90;99.90;;;;;;5054760;28;20024;-76
2020/12/25 00:55:04;;;;;;;30.60;21.13;;;10.80;99.90;;;;;;5054739;28;20017;-75
2020/12/25 00:57:30;;;;;;;28.73;19.27;;;10.80;99.90;;;;;;5054483;28;20021;-76
2020/12/25 00:59:56;;;;;;;25.67;17.73;;;10.80;99.90;;;;;;5069833;28;20029;-75
2020/12/25 01:02:23;;;;;;;28.10;18.20;;;10.80;99.90;;;;;;5054288;28;20032;-76
2020/12/25 01:04:49;;;;;;;23.13;16.48;;;10.80;99.90;;;;;;5054489;28;20055;-75
2020/12/25 01:07:15;;;;;;;26.42;17.80;;;10.70;99.90;;;;;;5054280;28;20099;-75
2020/12/25 01:09:41;;;;;;;25.15;16.38;;;10.70;99.90;;;;;;5054362;28;20430;-75
2020/12/25 01:12:07;;;;;;;28.98;15.98;;;10.70;99.90;;;;;;5054381;28;20101;-75
2020/12/25 01:14:33;;;;;;;28.00;17.10;;;10.70;99.90;;;;;;5054353;28;20044;-75
2020/12/25 01:16:59;;;;;;;26.90;18.35;;;10.70;99.90;;;;;;5054204;28;20104;-75
2020/12/25 01:19:26;;;;;;;50.25;17.00;;;10.70;99.90;;;;;;5054266;28;20033;-76
2020/12/25 01:21:52;;;;;;;26.30;15.43;;;10.60;99.90;;;;;;5054029;28;20032;-75
2020/12/25 01:24:18;;;;;;;19.77;12.98;;;10.60;99.90;;;;;;5053541;28;20071;-75
2020/12/25 01:26:44;;;;;;;21.42;13.45;;;10.60;99.90;;;;;;5053671;28;20488;-75
2020/12/25 01:29:10;;;;;;;22.77;13.10;;;10.50;99.90;;;;;;5053785;28;20051;-75
2020/12/25 01:31:36;;;;;;;24.67;14.05;;;10.50;99.90;;;;;;5053723;28;20108;-75
2020/12/25 01:34:03;;;;;;;22.50;12.27;;;10.50;99.90;;;;;;5053473;28;20472;-75
2020/12/25 01:36:29;;;;;;;17.30;10.60;;;10.50;99.90;;;;;;5053544;28;20460;-75
2020/12/25 01:38:55;;;;;;;16.15;10.85;;;10.50;99.90;;;;;;5053535;28;20033;-75
2020/12/25 01:41:21;;;;;;;22.05;13.35;;;10.50;99.90;;;;;;5053538;28;20052;-75
2020/12/25 01:43:47;;;;;;;13.27;8.40;;;10.50;99.90;;;;;;5053545;28;20037;-75
2020/12/25 01:46:14;;;;;;;17.45;10.30;;;10.40;99.90;;;;;;5053744;28;20029;-75
2020/12/25 01:48:41;;;;;;;20.13;11.45;;;10.40;99.90;;;;;;5052249;28;20423;-75
2020/12/25 01:51:08;;;;;;;18.95;10.48;;;10.40;99.90;;;;;;5053679;28;20032;-75
2020/12/25 01:53:36;;;;;;;18.85;9.70;;;10.40;99.90;;;;;;5053403;28;20052;-75
2020/12/25 01:56:03;;;;;;;18.80;11.27;;;10.30;99.90;;;;;;5053220;28;20100;-75
2020/12/25 01:58:30;;;;;;;13.82;9.40;;;10.30;99.90;;;;;;5052812;28;20025;-76
2020/12/25 02:00:57;;;;;;;33.67;16.40;;;10.40;99.90;;;;;;5052686;28;20499;-76
2020/12/25 02:03:23;;;;;;;20.73;12.77;;;10.40;99.90;;;;;;5053336;28;20065;-75
2020/12/25 02:05:49;;;;;;;17.35;10.35;;;10.40;99.90;;;;;;5053544;28;20083;-75
2020/12/25 02:08:15;;;;;;;15.10;9.20;;;10.30;99.90;;;;;;5052938;28;20357;-76
2020/12/25 02:10:42;;;;;;;11.30;8.65;;;10.40;99.90;;;;;;5053348;28;20027;-76
2020/12/25 02:13:08;;;;;;;17.05;10.50;;;10.30;99.90;;;;;;5053273;28;20025;-76
2020/12/25 02:15:35;;;;;;;49.78;13.40;;;10.40;99.90;;;;;;5053092;28;20060;-75
2020/12/25 02:18:01;;;;;;;18.33;11.30;;;10.40;99.90;;;;;;5053349;28;20020;-76
2020/12/25 02:20:28;;;;;;;13.90;8.68;;;10.30;99.90;;;;;;5053457;28;20033;-76
2020/12/25 02:22:54;;;;;;;23.67;12.13;;;10.40;99.90;;;;;;5053113;28;20044;-75
2020/12/25 02:25:20;;;;;;;31.63;13.57;;;10.30;99.90;;;;;;5052045;28;20396;-76
2020/12/25 02:27:46;;;;;;;24.85;11.25;;;10.30;99.90;;;;;;5053790;28;20029;-76
2020/12/25 02:30:14;;;;;;;26.10;11.43;;;10.30;99.90;;;;;;5054264;28;20092;-76
2020/12/25 02:32:40;;;;;;;43.63;12.35;;;10.30;99.90;;;;;;5053979;28;20021;-77
2020/12/25 02:35:06;;;;;;;31.42;14.90;;;10.40;99.90;;;;;;5053812;28;20028;-76
2020/12/25 02:37:32;;;;;;;24.13;14.20;;;10.40;99.90;;;;;;5051385;28;20024;-76
2020/12/25 02:39:58;;;;;;;22.30;14.98;;;10.40;99.90;;;;;;5053048;28;20029;-75
2020/12/25 02:42:24;;;;;;;24.45;14.80;;;10.40;99.90;;;;;;5052835;28;20135;-76
2020/12/25 02:44:50;;;;;;;22.75;11.73;;;10.40;99.90;;;;;;5052880;28;20528;-76
2020/12/25 02:47:16;;;;;;;19.02;13.00;;;10.40;99.90;;;;;;5052551;28;20639;-75
2020/12/25 02:49:41;;;;;;;20.85;13.90;;;10.40;99.90;;;;;;5052312;28;20376;-76
2020/12/25 02:52:07;;;;;;;26.55;16.33;;;10.40;99.90;;;;;;5052547;28;20029;-76
2020/12/25 02:54:33;;;;;;;20.65;14.02;;;10.40;99.90;;;;;;5052363;28;20025;-76
2020/12/25 02:56:59;;;;;;;17.15;12.00;;;10.40;99.90;;;;;;5052583;28;20025;-76
2020/12/25 02:59:25;;;;;;;19.98;12.93;;;10.40;99.90;;;;;;5052606;28;20040;-76
2020/12/25 03:01:52;;;;;;;17.05;12.95;;;10.40;99.90;;;;;;5052472;28;20044;-76
2020/12/25 03:04:19;;;;;;;15.70;11.32;;;10.40;99.90;;;;;;5052371;28;20021;-76
2020/12/25 03:06:45;;;;;;;16.83;11.23;;;10.40;99.90;;;;;;5052331;28;20104;-76
2020/12/25 03:09:12;;;;;;;16.25;10.10;;;10.40;99.90;;;;;;5052444;28;20021;-76
2020/12/25 03:11:38;;;;;;;10.30;6.78;;;10.40;99.90;;;;;;5052082;28;20029;-76
2020/12/25 03:14:04;;;;;;;33.20;7.60;;;10.30;99.90;;;;;;5052197;28;20024;-76
2020/12/25 03:16:30;;;;;;;7.80;5.78;;;10.40;99.90;;;;;;5050945;28;20365;-75
2020/12/25 03:18:56;;;;;;;6.85;5.45;;;10.30;99.90;;;;;;5050879;28;20029;-76
2020/12/25 03:21:23;;;;;;;10.38;7.05;;;10.30;99.90;;;;;;5052601;28;20094;-76
2020/12/25 03:23:49;;;;;;;17.48;11.20;;;10.30;99.90;;;;;;5052540;28;20071;-76
2020/12/25 03:26:16;;;;;;;26.08;15.52;;;10.30;99.90;;;;;;5052971;28;20033;-76
2020/12/25 03:28:43;;;;;;;15.15;9.93;;;10.20;99.90;;;;;;5052956;28;20016;-76
2020/12/25 03:31:08;;;;;;;12.80;8.20;;;10.20;99.90;;;;;;5050824;28;20032;-75
2020/12/25 03:33:34;;;;;;;15.32;8.00;;;10.10;99.90;;;;;;5052189;28;20096;-76
2020/12/25 03:36:00;;;;;;;11.20;7.45;;;9.90;99.90;;;;;;5051215;28;20032;-76
2020/12/25 03:38:26;;;;;;;12.68;6.97;;;9.90;99.90;;;;;;5052745;28;20075;-76
2020/12/25 03:40:52;;;;;;;13.05;8.55;;;9.90;99.90;;;;;;5053136;28;20487;-77
2020/12/25 03:43:18;;;;;;;12.43;7.43;;;9.90;99.90;;;;;;5051980;28;20029;-77
2020/12/25 03:45:45;;;;;;;14.82;9.07;;;9.80;99.90;;;;;;5053713;28;20025;-77
2020/12/25 03:48:11;;;;;;;17.02;10.18;;;9.80;99.90;;;;;;5052928;28;20531;-75
2020/12/25 03:50:37;;;;;;;16.00;8.50;;;9.80;99.90;;;;;;5051660;28;20115;-76
2020/12/25 03:53:03;;;;;;;12.15;9.55;;;9.80;99.90;;;;;;5050972;28;20104;-76
2020/12/25 03:55:29;;;;;;;9.93;7.43;;;9.80;99.90;;;;;;5052173;28;20016;-76
2020/12/25 03:57:54;;;;;;;10.15;8.20;;;9.80;99.90;;;;;;5050912;28;20055;-76
2020/12/25 04:00:20;;;;;;;9.38;7.43;;;9.70;99.90;;;;;;5050648;28;20071;-76
2020/12/25 04:02:48;;;;;;;13.82;8.18;;;9.70;99.90;;;;;;5052290;28;20025;-76
2020/12/25 04:05:14;;;;;;;10.07;7.18;;;9.80;99.90;;;;;;5052001;28;20527;-76
2020/12/25 04:07:40;;;;;;;10.07;7.97;;;9.80;99.90;;;;;;5051631;28;20065;-76
2020/12/25 04:10:06;;;;;;;12.13;9.13;;;9.80;99.90;;;;;;5052091;28;20087;-76
2020/12/25 04:12:32;;;;;;;16.98;11.50;;;9.80;99.90;;;;;;5051625;28;20395;-76
2020/12/25 04:14:57;;;;;;;16.63;11.70;;;9.80;99.90;;;;;;5051685;28;20045;-76
2020/12/25 04:17:23;;;;;;;16.55;12.18;;;9.90;99.90;;;;;;5051701;28;20025;-76
2020/12/25 04:19:49;;;;;;;35.28;18.45;;;9.90;99.90;;;;;;5067511;28;20553;-76
2020/12/25 04:22:15;;;;;;;109.05;46.85;;;9.90;99.90;;;;;;5052568;28;20103;-77
2020/12/25 04:24:41;;;;;;;39.80;21.45;;;9.90;99.90;;;;;;5056616;28;20063;-77
2020/12/25 04:27:07;;;;;;;22.45;13.73;;;9.80;99.90;;;;;;5056579;28;20029;-77
2020/12/25 04:29:32;;;;;;;23.75;15.50;;;9.80;99.90;;;;;;5056545;28;20056;-77
2020/12/25 04:31:58;;;;;;;26.45;15.35;;;9.80;99.90;;;;;;5054935;28;20361;-76
2020/12/25 04:34:24;;;;;;;88.07;18.38;;;9.80;99.90;;;;;;5055793;28;20048;-76
2020/12/25 04:36:50;;;;;;;35.42;19.48;;;9.80;99.90;;;;;;5054839;28;20047;-76
2020/12/25 04:39:16;;;;;;;42.13;22.23;;;9.80;99.90;;;;;;5056368;28;20025;-76
2020/12/25 04:41:41;;;;;;;32.33;18.38;;;9.90;99.90;;;;;;5056121;28;20492;-76
2020/12/25 04:44:07;;;;;;;21.95;14.70;;;9.80;99.90;;;;;;5056289;28;20114;-77
2020/12/25 04:46:34;;;;;;;24.05;13.85;;;9.80;99.90;;;;;;5055965;28;20112;-76
2020/12/25 04:49:00;;;;;;;14.40;10.15;;;9.80;99.90;;;;;;5055808;28;20116;-76
2020/12/25 04:51:26;;;;;;;20.13;12.68;;;9.80;99.90;;;;;;5055512;28;20049;-76
2020/12/25 04:53:53;;;;;;;24.88;15.45;;;9.80;99.90;;;;;;5055399;28;20021;-76
2020/12/25 04:56:21;;;;;;;26.73;17.88;;;9.70;99.90;;;;;;5055757;28;20017;-76
2020/12/25 04:58:47;;;;;;;20.38;13.02;;;9.70;99.90;;;;;;5054731;28;20522;-76
2020/12/25 05:01:13;;;;;;;16.10;12.00;;;9.60;99.90;;;;;;5055075;28;20041;-77
2020/12/25 05:03:41;;;;;;;29.52;18.02;;;9.70;99.90;;;;;;5055909;28;20464;-76
2020/12/25 05:06:17;;;;;;;18.52;12.45;;;9.70;99.90;;;;;;5071471;28;20481;-77
2020/12/25 05:08:50;;;;;;;27.75;11.15;;;9.80;99.90;;;;;;5055355;28;20555;-76
2020/12/25 05:11:20;;;;;;;27.33;20.33;;;9.70;99.90;;;;;;5054821;28;20036;-76
2020/12/25 05:13:48;;;;;;;21.27;15.52;;;9.60;99.90;;;;;;5053546;28;20025;-75
2020/12/25 05:16:16;;;;;;;28.40;21.83;;;9.40;99.90;;;;;;5054703;28;20465;-75
2020/12/25 05:18:44;;;;;;;23.52;18.55;;;9.50;99.90;;;;;;5054524;28;20017;-75
2020/12/25 05:21:12;;;;;;;24.90;17.25;;;9.50;99.90;;;;;;5054462;28;20167;-75
2020/12/25 05:23:39;;;;;;;33.97;23.83;;;9.50;99.90;;;;;;5053889;28;20052;-75
2020/12/25 05:26:09;;;;;;;17.75;14.48;;;9.50;99.90;;;;;;5054314;28;20033;-75
2020/12/25 05:28:57;;;;;;;26.38;17.35;;;9.40;99.90;;;;;;5054264;28;20017;-75
2020/12/25 05:31:23;;;;;;;22.02;16.27;;;9.50;99.90;;;;;;5054472;28;20021;-76
2020/12/25 05:33:49;;;;;;;23.65;16.77;;;9.50;99.90;;;;;;5054307;28;20075;-75
2020/12/25 05:36:16;;;;;;;29.63;22.77;;;9.40;99.90;;;;;;5054516;28;20017;-76
2020/12/25 05:38:50;;;;;;;24.80;19.05;;;9.40;99.90;;;;;;5054565;28;20029;-76
2020/12/25 05:41:17;;;;;;;18.23;13.05;;;9.40;99.90;;;;;;5054894;28;20100;-76
2020/12/25 05:43:50;;;;;;;24.58;19.33;;;9.30;99.90;;;;;;5054892;28;20029;-76
2020/12/25 05:46:17;;;;;;;17.40;12.60;;;9.40;99.90;;;;;;5054863;28;20079;-76
2020/12/25 05:48:51;;;;;;;24.58;18.88;;;9.40;99.90;;;;;;5054494;28;20021;-76
2020/12/25 05:51:17;;;;;;;29.17;21.25;;;9.50;99.90;;;;;;5054848;28;20048;-76
2020/12/25 05:53:45;;;;;;;35.55;25.77;;;9.40;99.90;;;;;;5054725;28;20017;-77
2020/12/25 05:56:14;;;;;;;35.90;27.98;;;9.50;99.90;;;;;;5054938;28;20526;-76
2020/12/25 05:58:43;;;;;;;36.13;27.80;;;9.50;99.90;;;;;;5054528;28;20029;-77
2020/12/25 06:01:11;;;;;;;33.65;26.77;;;9.50;99.90;;;;;;5054653;28;20021;-77
2020/12/25 06:03:37;;;;;;;46.78;27.90;;;9.50;99.90;;;;;;5054568;28;20391;-76
2020/12/25 06:06:11;;;;;;;38.60;27.27;;;9.50;99.90;;;;;;5054534;28;20100;-77
2020/12/25 06:09:11;;;;;;;34.88;25.10;;;9.50;99.90;;;;;;5054749;28;20025;-77
2020/12/25 06:11:37;;;;;;;30.02;22.67;;;9.50;99.90;;;;;;5046005;28;20033;-77
2020/12/25 06:14:03;;;;;;;98.22;26.50;;;9.50;99.90;;;;;;5053862;28;20017;-76
2020/12/25 06:16:30;;;;;;;43.90;29.05;;;9.50;99.90;;;;;;5053171;28;20017;-75
2020/12/25 06:19:14;;;;;;;49.35;33.13;;;9.50;99.90;;;;;;5053191;28;20017;-75
2020/12/25 06:22:25;;;;;;;44.00;31.30;;;9.50;99.90;;;;;;5053075;28;20472;-75
2020/12/25 06:24:52;;;;;;;45.58;31.52;;;9.50;99.90;;;;;;5033743;28;20053;-75
2020/12/25 06:27:18;;;;;;;45.95;32.72;;;9.50;99.90;;;;;;5053043;28;20036;-75
2020/12/25 06:29:44;;;;;;;53.38;38.85;;;9.50;99.90;;;;;;5053063;28;20029;-76
2020/12/25 06:32:11;;;;;;;54.53;38.28;;;9.50;99.90;;;;;;5053391;28;20051;-76
2020/12/25 06:34:48;;;;;;;54.67;37.95;;;9.50;99.90;;;;;;5053488;28;20032;-76
2020/12/25 06:37:15;;;;;;;54.35;38.53;;;9.50;99.90;;;;;;5053795;28;20025;-76
2020/12/25 06:39:51;;;;;;;79.20;51.85;;;9.50;99.90;;;;;;5053329;28;20055;-76
2020/12/25 06:42:46;;;;;;;78.40;50.40;;;9.50;99.90;;;;;;5053505;28;20063;-76
2020/12/25 06:45:12;;;;;;;66.28;44.28;;;9.50;99.90;;;;;;5051835;28;20041;-76
2020/12/25 06:47:40;;;;;;;67.20;47.25;;;9.50;99.90;;;;;;5053044;28;20035;-75
2020/12/25 06:50:11;;;;;;;65.72;46.00;;;9.50;99.90;;;;;;5053303;28;20029;-76
2020/12/25 06:53:00;;;;;;;72.53;49.72;;;9.50;99.90;;;;;;5053531;28;20361;-76
2020/12/25 06:55:40;;;;;;;62.33;45.47;;;9.40;99.90;;;;;;5052337;28;20053;-76
2020/12/25 06:58:06;;;;;;;63.38;45.38;;;9.40;99.90;;;;;;5053254;28;20472;-76
2020/12/25 07:00:32;;;;;;;61.85;43.83;;;9.50;99.90;;;;;;5053137;28;20079;-76
2020/12/25 07:03:14;;;;;;;54.83;40.03;;;9.50;99.90;;;;;;5052889;28;20021;-76
2020/12/25 07:05:47;;;;;;;74.05;50.22;;;9.50;99.90;;;;;;5053048;28;20025;-76
2020/12/25 07:08:26;;;;;;;60.63;44.90;;;9.50;99.90;;;;;;5051474;28;20033;-76
2020/12/25 07:11:05;;;;;;;81.57;51.28;;;9.40;99.90;;;;;;5052521;28;20100;-77
2020/12/25 07:13:32;;;;;;;65.20;45.35;;;9.40;99.90;;;;;;5052221;28;20024;-75
2020/12/25 07:15:59;;;;;;;59.60;40.85;;;9.50;99.90;;;;;;5052038;28;20017;-75
2020/12/25 07:18:26;;;;;;;53.85;38.63;;;9.50;99.90;;;;;;5050499;28;20383;-75
2020/12/25 07:20:52;;;;;;;66.05;37.53;;;9.50;99.90;;;;;;5051902;28;20082;-75
2020/12/25 07:23:18;;;;;;;125.97;35.22;;;9.50;99.90;;;;;;5051797;28;20056;-74
2020/12/25 07:25:45;;;;;;;66.30;42.78;;;9.60;99.90;;;;;;5051630;28;20036;-74
2020/12/25 07:28:11;;;;;;;68.13;45.05;;;9.60;99.90;;;;;;5051324;28;20025;-74
2020/12/25 07:30:36;;;;;;;69.90;43.55;;;9.50;99.90;;;;;;5051503;28;20477;-74
2020/12/25 07:33:06;;;;;;;65.47;42.60;;;9.50;99.90;;;;;;5051319;28;20036;-74
2020/12/25 07:35:32;;;;;;;80.82;50.15;;;9.50;99.90;;;;;;5051456;28;20029;-74
2020/12/25 07:37:58;;;;;;;76.80;53.83;;;9.50;99.90;;;;;;5050193;28;20029;-74
2020/12/25 07:40:24;;;;;;;81.47;53.38;;;9.50;99.90;;;;;;5051401;28;20031;-74
2020/12/25 07:42:50;;;;;;;95.32;52.58;;;9.50;99.90;;;;;;5051241;28;20025;-74
2020/12/25 07:45:17;;;;;;;89.32;51.42;;;9.60;99.90;;;;;;5051315;28;20033;-75
2020/12/25 07:47:43;;;;;;;74.80;47.35;;;9.60;99.90;;;;;;5051004;28;20033;-74
2020/12/25 07:50:09;;;;;;;77.07;47.88;;;9.60;99.90;;;;;;5051172;28;20017;-75
2020/12/25 07:52:35;;;;;;;88.22;48.97;;;9.60;99.90;;;;;;5051256;28;20108;-75
2020/12/25 07:55:01;;;;;;;86.88;49.03;;;9.60;99.90;;;;;;5051158;28;20028;-75
2020/12/25 07:57:27;;;;;;;90.07;47.80;;;9.70;99.90;;;;;;5049930;28;20087;-74
2020/12/25 07:59:55;;;;;;;88.60;47.90;;;9.60;99.90;;;;;;5050968;28;20029;-74
2020/12/25 08:02:22;;;;;;;82.85;48.72;;;9.60;99.90;;;;;;5066121;28;20025;-74
2020/12/25 08:04:48;;;;;;;91.57;49.78;;;9.60;99.90;;;;;;5050803;28;20021;-74
2020/12/25 08:07:14;;;;;;;89.45;54.25;;;9.60;99.90;;;;;;5050698;28;20021;-74
2020/12/25 08:09:42;;;;;;;99.00;56.65;;;9.60;99.90;;;;;;5050829;28;20028;-75
2020/12/25 08:12:10;;;;;;;102.18;62.78;;;9.50;99.90;;;;;;5050717;28;20024;-74
2020/12/25 08:14:42;;;;;;;101.28;63.72;;;9.60;99.90;;;;;;5050752;28;20021;-75
2020/12/25 08:17:09;;;;;;;119.00;72.97;;;9.60;99.90;;;;;;5050547;28;20044;-75
2020/12/25 08:19:36;;;;;;;119.93;71.93;;;9.50;99.90;;;;;;5050784;28;20105;-75
2020/12/25 08:22:08;;;;;;;118.03;64.80;;;9.50;99.90;;;;;;5051171;28;20029;-74
2020/12/25 08:24:35;;;;;;;94.03;57.60;;;9.50;99.90;;;;;;5050858;28;20052;-74
2020/12/25 08:27:03;;;;;;;103.22;61.00;;;9.60;99.90;;;;;;5049306;28;20110;-74
2020/12/25 08:29:32;;;;;;;103.82;61.50;;;9.50;99.90;;;;;;5050652;28;20452;-74
2020/12/25 08:32:09;;;;;;;120.88;71.07;;;9.60;99.90;;;;;;5050741;28;20024;-75
2020/12/25 08:34:36;;;;;;;121.47;74.65;;;9.50;99.90;;;;;;5050852;28;20024;-74
2020/12/25 08:37:13;;;;;;;412.23;240.30;;;9.50;99.90;;;;;;5050655;28;20032;-74
2020/12/25 08:39:40;;;;;;;173.77;104.20;;;9.50;99.90;;;;;;5050561;28;20056;-75
2020/12/25 08:42:09;;;;;;;293.27;151.43;;;9.50;99.90;;;;;;5049770;28;20033;-75
2020/12/25 08:44:35;;;;;;;223.07;125.10;;;9.50;99.90;;;;;;5051112;28;20033;-75
2020/12/25 08:47:08;;;;;;;175.30;101.80;;;9.60;99.90;;;;;;5050722;28;20017;-75
2020/12/25 08:49:34;;;;;;;184.85;108.07;;;9.50;99.90;;;;;;5050995;28;20025;-75
2020/12/25 08:52:00;;;;;;;254.32;149.57;;;9.60;99.90;;;;;;5050888;28;20032;-74
2020/12/25 08:54:27;;;;;;;154.88;95.20;;;9.50;99.90;;;;;;5050905;28;20017;-75
2020/12/25 08:56:54;;;;;;;116.30;74.53;;;9.50;99.90;;;;;;5050675;28;20029;-75
2020/12/25 08:59:22;;;;;;;114.30;77.68;;;9.60;99.90;;;;;;5050562;28;20489;-74
2020/12/25 09:01:49;;;;;;;75.03;52.03;;;9.50;99.90;;;;;;5050896;28;20040;-74
2020/12/25 09:04:18;;;;;;;92.50;59.72;;;9.50;99.90;;;;;;5050637;28;20136;-74
2020/12/25 09:06:45;;;;;;;78.57;54.25;;;9.50;99.90;;;;;;5050407;28;20033;-74
2020/12/25 09:09:11;;;;;;;99.85;67.97;;;9.50;99.90;;;;;;5052358;28;20024;-75
2020/12/25 09:11:37;;;;;;;123.70;91.55;;;9.50;99.90;;;;;;5054185;28;20033;-75
2020/12/25 09:14:03;;;;;;;91.72;71.85;;;9.60;99.90;;;;;;5054312;28;20052;-74
2020/12/25 09:16:29;;;;;;;138.77;90.40;;;9.60;99.90;;;;;;5054024;28;20013;-75
2020/12/25 09:18:55;;;;;;;101.20;71.05;;;9.60;99.90;;;;;;5053585;28;20132;-74
2020/12/25 09:21:21;;;;;;;216.90;91.93;;;9.60;99.90;;;;;;5053335;28;20021;-74
2020/12/25 09:23:47;;;;;;;126.88;74.47;;;9.60;99.90;;;;;;5053444;28;20048;-74
2020/12/25 09:26:14;;;;;;;173.05;92.90;;;9.50;99.90;;;;;;5052466;28;20431;-74
2020/12/25 09:28:41;;;;;;;92.07;56.22;;;9.60;99.90;;;;;;5053395;28;20140;-74
2020/12/25 09:31:09;;;;;;;88.93;56.22;;;9.60;99.90;;;;;;5052428;28;20605;-78
2020/12/25 09:33:36;;;;;;;97.38;52.67;;;9.50;99.90;;;;;;5052267;28;20071;-74
2020/12/25 09:36:03;;;;;;;154.38;82.40;;;9.50;99.90;;;;;;5053530;28;20384;-74
2020/12/25 09:38:29;;;;;;;173.98;77.30;;;9.60;99.90;;;;;;5053628;28;20033;-74
2020/12/25 09:40:55;;;;;;;238.40;93.93;;;9.60;99.90;;;;;;5053324;28;20040;-74
2020/12/25 09:43:21;;;;;;;83.80;46.47;;;9.60;99.90;;;;;;5053497;28;20369;-75
2020/12/25 09:45:47;;;;;;;97.00;52.33;;;9.60;99.90;;;;;;5053224;28;20024;-74
2020/12/25 09:48:13;;;;;;;49.67;32.50;;;9.60;99.90;;;;;;5053158;28;20032;-74
2020/12/25 09:50:43;;;;;;;42.72;28.85;;;9.60;99.90;;;;;;5053300;28;20032;-74
2020/12/25 09:53:09;;;;;;;41.40;28.25;;;9.50;99.90;;;;;;5073310;28;20025;-74
2020/12/25 09:55:40;;;;;;;65.15;35.80;;;9.60;99.90;;;;;;5073248;28;20023;-74
2020/12/25 09:58:07;;;;;;;40.92;26.35;;;9.60;99.90;;;;;;5073463;28;20499;-75
2020/12/25 10:00:33;;;;;;;43.58;27.30;;;9.50;99.90;;;;;;5073196;28;20020;-74
2020/12/25 10:02:59;;;;;;;34.35;21.35;;;9.50;99.90;;;;;;5071883;28;20024;-75
2020/12/25 10:05:25;;;;;;;26.67;16.05;;;9.50;99.90;;;;;;5073357;28;20032;-74
2020/12/25 10:07:52;;;;;;;27.10;17.02;;;9.50;99.90;;;;;;5073051;28;20020;-75
2020/12/25 10:10:20;;;;;;;38.85;21.42;;;9.50;99.90;;;;;;5073093;28;20059;-75
2020/12/25 10:12:47;;;;;;;39.50;22.67;;;9.50;99.90;;;;;;5071681;28;20115;-75
2020/12/25 10:15:14;;;;;;;15.98;11.88;;;9.50;99.90;;;;;;5071817;28;20030;-74
2020/12/25 10:17:40;;;;;;;43.72;23.90;;;9.50;99.90;;;;;;5072951;28;20040;-74
2020/12/25 10:20:06;;;;;;;27.88;15.75;;;9.50;99.90;;;;;;5071779;28;20488;-75
2020/12/25 10:22:32;;;;;;;23.08;15.27;;;9.50;99.90;;;;;;5072766;28;20070;-75
2020/12/25 10:24:58;;;;;;;30.50;18.67;;;9.50;99.90;;;;;;5072897;28;20526;-74
2020/12/25 10:27:25;;;;;;;37.28;20.15;;;9.50;99.90;;;;;;5072485;28;20032;-74
2020/12/25 10:29:51;;;;;;;57.35;30.05;;;9.50;99.90;;;;;;5072770;28;20055;-74
2020/12/25 10:32:17;;;;;;;39.72;23.27;;;9.50;99.90;;;;;;5072783;28;20056;-75
2020/12/25 10:34:42;;;;;;;55.17;30.58;;;9.50;99.90;;;;;;5072875;28;20047;-75
2020/12/25 10:37:08;;;;;;;68.28;41.38;;;9.40;99.90;;;;;;5072914;28;20086;-75
2020/12/25 10:39:34;;;;;;;47.75;30.55;;;9.40;99.90;;;;;;5072947;28;20029;-75
2020/12/25 10:42:00;;;;;;;84.10;49.70;;;9.40;99.90;;;;;;5072800;28;20031;-75
2020/12/25 10:44:26;;;;;;;111.43;61.70;;;9.40;99.90;;;;;;5071590;28;20037;-75
2020/12/25 10:46:57;;;;;;;133.65;71.72;;;9.40;99.90;;;;;;5072524;28;20561;-74
2020/12/25 10:49:23;;;;;;;82.18;42.17;;;9.30;99.90;;;;;;5072330;28;20052;-74
2020/12/25 10:51:49;;;;;;;139.45;73.15;;;9.40;99.90;;;;;;5072689;28;20045;-75
2020/12/25 10:54:15;;;;;;;81.75;48.67;;;9.40;99.90;;;;;;5072500;28;20020;-75
2020/12/25 10:56:40;;;;;;;31.42;22.63;;;9.40;99.90;;;;;;5070869;28;20502;-75
2020/12/25 10:59:06;;;;;;;38.80;24.88;;;9.40;99.90;;;;;;5065047;28;20052;-74
2020/12/25 11:01:32;;;;;;;26.13;18.13;;;9.40;99.90;;;;;;5049506;28;20029;-74
2020/12/25 11:03:58;;;;;;;29.52;20.08;;;9.40;99.90;;;;;;5051116;28;20021;-74
2020/12/25 11:06:37;;;;;;;30.90;20.48;;;9.30;99.90;;;;;;5051169;28;20071;-74
2020/12/25 11:09:06;;;;;;;43.03;28.15;;;9.30;99.90;;;;;;5049941;28;20033;-74
2020/12/25 11:11:35;;;;;;;37.05;23.80;;;9.30;99.90;;;;;;5052077;28;20042;-75
2020/12/25 11:14:02;;;;;;;37.42;24.52;;;9.40;99.90;;;;;;5052384;28;20046;-75
2020/12/25 11:16:31;;;;;;;30.60;19.42;;;9.90;99.90;;;;;;5067302;28;20032;-75
2020/12/25 11:18:58;;;;;;;36.22;26.20;;;9.80;99.90;;;;;;5052070;28;20048;-74
2020/12/25 11:21:29;;;;;;;37.22;26.08;;;9.70;99.90;;;;;;5051981;28;20104;-75
2020/12/25 11:23:56;;;;;;;48.15;32.90;;;9.60;99.90;;;;;;5051892;28;20045;-75
2020/12/25 11:26:33;;;;;;;170.93;102.60;;;9.50;99.90;;;;;;5051837;28;20033;-74
2020/12/25 11:29:07;;;;;;;143.48;85.72;;;9.40;99.90;;;;;;5050091;28;20098;-74
2020/12/25 11:31:35;;;;;;;52.13;36.90;;;9.40;99.90;;;;;;5051065;28;20048;-74
2020/12/25 11:34:01;;;;;;;33.40;23.92;;;9.30;99.90;;;;;;5051303;28;20388;-74
2020/12/25 11:36:29;;;;;;;184.38;106.20;;;9.30;99.90;;;;;;5066651;28;20028;-74
2020/12/25 11:38:55;;;;;;;61.17;39.22;;;9.30;99.90;;;;;;5050019;28;20029;-74
2020/12/25 11:41:23;;;;;;;30.42;21.50;;;9.30;99.90;;;;;;5051288;28;20025;-75
2020/12/25 11:43:50;;;;;;;17.90;13.20;;;9.30;99.90;;;;;;5051144;28;20769;-74
2020/12/25 11:46:17;;;;;;;18.42;14.52;;;9.30;99.90;;;;;;5051000;28;20033;-74
2020/12/25 11:48:44;;;;;;;51.15;35.67;;;9.30;99.90;;;;;;5051117;28;20025;-74
2020/12/25 11:51:17;;;;;;;20.38;16.63;;;9.30;99.90;;;;;;5051251;28;20542;-75
2020/12/25 11:53:43;;;;;;;20.55;15.73;;;9.30;99.90;;;;;;5051166;28;20757;-74
2020/12/25 11:56:09;;;;;;;23.65;17.10;;;9.30;99.90;;;;;;5050937;28;20021;-74
2020/12/25 11:58:35;;;;;;;31.77;23.80;;;9.30;99.90;;;;;;5050990;28;20028;-75
2020/12/25 12:01:00;;;;;;;326.67;113.38;;;9.40;99.90;;;;;;5051145;28;20025;-74
2020/12/25 12:03:26;;;;;;;514.60;211.98;;;9.40;99.90;;;;;;5051006;28;20029;-75
2020/12/25 12:05:53;;;;;;;192.77;74.45;;;9.40;99.90;;;;;;5051019;28;20040;-75
2020/12/25 12:08:19;;;;;;;227.25;92.15;;;9.40;99.90;;;;;;5050848;28;20032;-74
2020/12/25 12:10:45;;;;;;;96.07;48.78;;;9.30;99.90;;;;;;5051072;28;20025;-74
2020/12/25 12:13:10;;;;;;;406.35;163.35;;;9.40;99.90;;;;;;5050859;28;20029;-75
2020/12/25 12:15:37;;;;;;;684.60;329.10;;;9.40;99.90;;;;;;5050795;28;20499;-74
2020/12/25 12:18:04;;;;;;;495.73;233.20;;;9.40;99.90;;;;;;5050678;28;20108;-74
2020/12/25 12:20:31;;;;;;;423.85;196.68;;;9.40;99.90;;;;;;5050234;28;20033;-74
2020/12/25 12:22:56;;;;;;;540.20;275.20;;;9.40;99.90;;;;;;5050346;28;20059;-74
2020/12/25 12:25:22;;;;;;;124.35;68.15;;;9.40;99.90;;;;;;5050728;28;20033;-74
2020/12/25 12:27:48;;;;;;;79.20;52.63;;;9.40;99.90;;;;;;5050668;28;20050;-75
2020/12/25 12:30:14;;;;;;;226.50;114.43;;;9.40;99.90;;;;;;5050518;28;20049;-74
2020/12/25 12:32:40;;;;;;;172.00;92.30;;;9.40;99.90;;;;;;5050614;28;20032;-74
2020/12/25 12:35:06;;;;;;;93.38;55.38;;;9.40;99.90;;;;;;5049537;28;20021;-74